TimePST,TemperatureF,Dew PointF,Humidity,Sea Level PressureIn,VisibilityMPH,Wind Direction,Wind SpeedMPH,Gust SpeedMPH,PrecipitationIn,Events,Conditions,WindDirDegrees,DateUTC
12:53 AM,26.1,23.0,88,30.33,6.0,Calm,Calm,-,N/A,,Clear,0,2013-01-18 08:53:00
1:53 AM,24.1,21.0,88,30.34,7.0,Calm,Calm,-,N/A,,Clear,0,2013-01-18 09:53:00
2:53 AM,24.1,21.0,88,30.34,5.0,Calm,Calm,-,N/A,,Clear,0,2013-01-18 10:53:00
3:53 AM,24.1,21.0,88,30.32,6.0,Calm,Calm,-,N/A,,Clear,0,2013-01-18 11:53:00
4:53 AM,24.1,21.0,88,30.31,5.0,Calm,Calm,-,N/A,,Clear,0,2013-01-18 12:53:00
5:53 AM,23.0,19.0,85,30.31,7.0,Calm,Calm,-,N/A,,Clear,0,2013-01-18 13:53:00
6:53 AM,24.1,19.9,84,30.31,6.0,Calm,Calm,-,N/A,,Clear,0,2013-01-18 14:53:00
7:53 AM,24.1,21.0,88,30.32,7.0,Calm,Calm,-,N/A,,Clear,0,2013-01-18 15:53:00
8:53 AM,26.1,23.0,88,30.33,7.0,Calm,Calm,-,N/A,,Clear,0,2013-01-18 16:53:00
9:53 AM,30.9,28.0,89,30.35,8.0,Calm,Calm,-,N/A,,Clear,0,2013-01-18 17:53:00
10:53 AM,35.1,28.9,78,30.34,10.0,Calm,Calm,-,N/A,,Clear,0,2013-01-18 18:53:00
11:53 AM,37.0,28.9,73,30.32,10.0,Calm,Calm,-,N/A,,Clear,0,2013-01-18 19:53:00
12:53 PM,39.9,28.9,65,30.31,10.0,Calm,Calm,-,N/A,,Clear,0,2013-01-18 20:53:00
1:53 PM,42.1,30.0,62,30.29,10.0,Calm,Calm,-,N/A,,Clear,0,2013-01-18 21:53:00
2:53 PM,44.1,30.9,60,30.28,10.0,Calm,Calm,-,N/A,,Clear,0,2013-01-18 22:53:00
3:53 PM,45.0,30.0,56,30.28,10.0,Calm,Calm,-,N/A,,Clear,0,2013-01-18 23:53:00
4:53 PM,41.0,30.0,65,30.28,10.0,Calm,Calm,-,N/A,,Clear,0,2013-01-19 00:53:00
5:53 PM,34.0,28.0,79,30.29,10.0,Calm,Calm,-,N/A,,Clear,0,2013-01-19 01:53:00
6:53 PM,30.9,26.1,82,30.29,10.0,Calm,Calm,-,N/A,,Clear,0,2013-01-19 02:53:00
7:53 PM,30.0,26.1,85,30.29,9.0,Calm,Calm,-,N/A,,Clear,0,2013-01-19 03:53:00
8:53 PM,28.9,24.1,82,30.30,8.0,Calm,Calm,-,N/A,,Clear,0,2013-01-19 04:53:00
9:53 PM,26.1,21.9,84,30.31,6.0,Calm,Calm,-,N/A,,Clear,0,2013-01-19 05:53:00
10:53 PM,25.0,21.9,88,30.31,4.0,Calm,Calm,-,N/A,,Clear,0,2013-01-19 06:53:00
11:53 PM,24.1,19.9,84,30.31,5.0,Calm,Calm,-,N/A,,Clear,0,2013-01-19 07:53:00